Richfield, North Carolina
Current Conditions -  °F | °C
As of 5:15 AM on Saturday 20 Dec 2014 (Local Time) from KVUJ Reporting Station
Overcast Overcast  
Wind Chill: 40°   Ceiling: 6000
Heat Index: 40°   Visibility: 10mi
Dew Point: 33°   Wind: 3mph
Humidity: 78%   Direction: 50°NE
Pressure: 30.25"   Gusts: NA
Location:  35.47°N, 80.26°W
Report Text: KVUJ 201015Z AUTO 05003KT 10SM BKN060 OVC075 04/01 A3025 RMK AO2 T00430007
Loading
Personal Weather Stations






























Interactive Weather Map New forecast layout! Learn more

10-Day Weather Forecast

Advertisements
Track Severe Weather on mobile